23:23
Airports
Links
Donate
Help keep this website running!
PayPal
Bitcoin
METAR
BGJN 292250Z AUTO 13002KT 9999NDV FEW190/// M06/M13 Q0997
Current Weather Conditions at BGJN
22:50:00 29-04-17
Automated station, no observer
Altimeter:29.44 hg
Temp:-6.0°c 21°f
Dew point:-13.0°cf
Wind:2 knots, 2.3 mph, 1 m/s, from 130°
Visibility:Not reported
19000(FEW) A few
Past METAR reports
21:50:00 29-04-17
Automated station, no observer
Altimeter:29.44 hg
Temp:-5.0°c 23°f
Dew point:-14.0°cf
Wind:5 knots, 5.8 mph, 3 m/s, from 20°
Visibility:Not reported
(CLR) Clear
BGJN 292150Z AUTO 02005KT 9999NDV NCD M05/M14 Q0997
20:50:00 29-04-17
Automated station, no observer
Altimeter:29.44 hg
Temp:-5.0°c 23°f
Dew point:-14.0°cf
Wind:8 knots, 9.2 mph, 4 m/s, from 20°
Visibility:Not reported
(CLR) Clear
BGJN 292050Z AUTO 02008KT 9999NDV NCD M05/M14 Q0997
VFR 19:50:00 29-04-17
Altimeter:29.47 hg
Temp:-6.0°c 21°f
Dew point:-14.0°cf
Wind:9 knots, 10.4 mph, 5 m/s, from 20°
Visibility:6.21 statute miles
20000(BKN) Broken
BGJN 291950Z 02009KT 9999 BKN200 M06/M14 Q0998
VFR 18:50:00 29-04-17
Altimeter:29.53 hg
Temp:-5.0°c 23°f
Dew point:-14.0°cf
Wind:10 knots, 11.5 mph, 5 m/s, from 20°
Visibility:6.21 statute miles
20000(BKN) Broken
BGJN 291850Z 02010KT 9999 BKN200 M05/M14 Q1000
VFR 17:50:00 29-04-17
Altimeter:29.56 hg
Temp:-6.0°c 21°f
Dew point:-16.0°cf
Wind:9 knots, 10.4 mph, 5 m/s, from 10°
Visibility:6.21 statute miles
20000(FEW) A few
BGJN 291750Z 01009KT 9999 FEW200 M06/M16 Q1001
TAF
TAF COR BGJN 291955Z 2918/2921 VRB08KT 9999 BKN200
Forecast at BGJN
18:00 29-04-17 to 21:00 29-04-17
Wind:8 Knots from 360°
Visibility:6.21 statute miles
20000BKN Broken